sensor_id;sensor_type;location;lat;lon;timestamp;pressure;altitude;pressure_sealevel;temperature;humidity
70009;BME280;59542;37.950;-122.338;2023-02-12T00:00:47;101102.81;;;13.08;47.09
70009;BME280;59542;37.950;-122.338;2023-02-12T00:03:14;101101.94;;;13.21;47.50
70009;BME280;59542;37.950;-122.338;2023-02-12T00:05:40;101114.50;;;13.20;46.22
70009;BME280;59542;37.950;-122.338;2023-02-12T00:08:08;101118.91;;;13.22;46.98
70009;BME280;59542;37.950;-122.338;2023-02-12T00:10:40;101122.81;;;13.19;45.27
70009;BME280;59542;37.950;-122.338;2023-02-12T00:13:09;101132.78;;;13.12;45.48
70009;BME280;59542;37.950;-122.338;2023-02-12T00:15:44;101143.94;;;13.09;45.95
70009;BME280;59542;37.950;-122.338;2023-02-12T00:18:10;101139.97;;;13.18;45.69
70009;BME280;59542;37.950;-122.338;2023-02-12T00:20:37;101138.22;;;13.37;44.85
70009;BME280;59542;37.950;-122.338;2023-02-12T00:23:04;101129.16;;;13.31;44.51
70009;BME280;59542;37.950;-122.338;2023-02-12T00:25:31;101136.28;;;13.12;43.66
70009;BME280;59542;37.950;-122.338;2023-02-12T00:27:57;101140.44;;;13.08;43.08
70009;BME280;59542;37.950;-122.338;2023-02-12T00:30:24;101145.59;;;13.10;42.18
70009;BME280;59542;37.950;-122.338;2023-02-12T00:32:50;101152.81;;;13.23;41.59
70009;BME280;59542;37.950;-122.338;2023-02-12T00:35:16;101159.00;;;13.16;41.79
70009;BME280;59542;37.950;-122.338;2023-02-12T00:37:42;101152.31;;;13.32;41.66
70009;BME280;59542;37.950;-122.338;2023-02-12T00:40:09;101152.38;;;13.19;44.09
70009;BME280;59542;37.950;-122.338;2023-02-12T00:42:36;101154.66;;;13.15;43.75
70009;BME280;59542;37.950;-122.338;2023-02-12T00:45:02;101149.09;;;13.17;43.53
70009;BME280;59542;37.950;-122.338;2023-02-12T00:47:28;101155.28;;;13.17;43.79
70009;BME280;59542;37.950;-122.338;2023-02-12T00:49:55;101153.16;;;13.33;43.19
70009;BME280;59542;37.950;-122.338;2023-02-12T00:52:21;101168.63;;;13.37;43.54
70009;BME280;59542;37.950;-122.338;2023-02-12T00:54:47;101165.22;;;13.17;48.10
70009;BME280;59542;37.950;-122.338;2023-02-12T00:57:13;101165.81;;;13.19;48.58
70009;BME280;59542;37.950;-122.338;2023-02-12T00:59:40;101166.31;;;13.03;48.06
70009;BME280;59542;37.950;-122.338;2023-02-12T01:02:07;101170.06;;;12.95;48.93
70009;BME280;59542;37.950;-122.338;2023-02-12T01:04:33;101172.31;;;13.05;49.46
70009;BME280;59542;37.950;-122.338;2023-02-12T01:07:00;101182.69;;;12.94;52.23
70009;BME280;59542;37.950;-122.338;2023-02-12T01:09:26;101193.63;;;13.00;51.94
70009;BME280;59542;37.950;-122.338;2023-02-12T01:11:52;101197.97;;;12.87;53.16
70009;BME280;59542;37.950;-122.338;2023-02-12T01:14:18;101199.03;;;12.86;53.59
70009;BME280;59542;37.950;-122.338;2023-02-12T01:16:45;101198.16;;;12.92;53.09
70009;BME280;59542;37.950;-122.338;2023-02-12T01:19:11;101190.56;;;12.89;53.58
70009;BME280;59542;37.950;-122.338;2023-02-12T01:21:38;101193.50;;;12.75;53.92
70009;BME280;59542;37.950;-122.338;2023-02-12T01:24:04;101191.03;;;12.73;54.17
70009;BME280;59542;37.950;-122.338;2023-02-12T01:26:31;101200.53;;;12.69;54.43
70009;BME280;59542;37.950;-122.338;2023-02-12T01:29:00;101184.59;;;12.74;54.45
70009;BME280;59542;37.950;-122.338;2023-02-12T01:31:28;101181.75;;;12.62;54.93
70009;BME280;59542;37.950;-122.338;2023-02-12T01:33:57;101176.38;;;12.62;55.39
70009;BME280;59542;37.950;-122.338;2023-02-12T01:36:24;101173.91;;;12.61;55.11
70009;BME280;59542;37.950;-122.338;2023-02-12T01:38:51;101170.41;;;12.60;55.91
70009;BME280;59542;37.950;-122.338;2023-02-12T01:41:20;101171.88;;;12.56;56.05
70009;BME280;59542;37.950;-122.338;2023-02-12T01:46:44;101175.41;;;12.37;56.89
70009;BME280;59542;37.950;-122.338;2023-02-12T01:50:00;101182.63;;;12.43;57.18
70009;BME280;59542;37.950;-122.338;2023-02-12T01:54:35;101194.44;;;12.22;58.02
70009;BME280;59542;37.950;-122.338;2023-02-12T01:57:04;101193.63;;;12.22;58.31
70009;BME280;59542;37.950;-122.338;2023-02-12T01:59:31;101195.88;;;12.18;58.24
70009;BME280;59542;37.950;-122.338;2023-02-12T02:01:59;101203.50;;;12.08;58.38
70009;BME280;59542;37.950;-122.338;2023-02-12T02:04:28;101207.25;;;12.00;58.61
70009;BME280;59542;37.950;-122.338;2023-02-12T02:06:59;101210.53;;;11.96;58.85
70009;BME280;59542;37.950;-122.338;2023-02-12T02:09:26;101209.06;;;11.93;58.97
70009;BME280;59542;37.950;-122.338;2023-02-12T02:11:53;101212.78;;;11.85;59.20
70009;BME280;59542;37.950;-122.338;2023-02-12T02:14:38;101222.03;;;11.76;59.44
70009;BME280;59542;37.950;-122.338;2023-02-12T02:31:36;101231.38;;;11.19;62.46
70009;BME280;59542;37.950;-122.338;2023-02-12T02:37:02;101240.81;;;11.08;63.38
70009;BME280;59542;37.950;-122.338;2023-02-12T02:42:22;101253.78;;;9.71;69.51
70009;BME280;59542;37.950;-122.338;2023-02-12T02:44:53;101253.72;;;10.08;68.22
70009;BME280;59542;37.950;-122.338;2023-02-12T02:47:30;101254.16;;;10.11;68.08
70009;BME280;59542;37.950;-122.338;2023-02-12T02:50:04;101255.31;;;10.02;68.28
70009;BME280;59542;37.950;-122.338;2023-02-12T02:52:52;101253.13;;;9.69;69.87
70009;BME280;59542;37.950;-122.338;2023-02-12T02:55:22;101256.31;;;9.58;70.38
70009;BME280;59542;37.950;-122.338;2023-02-12T02:58:05;101260.00;;;9.21;72.39
70009;BME280;59542;37.950;-122.338;2023-02-12T03:00:40;101260.09;;;9.28;71.97
70009;BME280;59542;37.950;-122.338;2023-02-12T03:03:25;101265.91;;;8.87;73.30
70009;BME280;59542;37.950;-122.338;2023-02-12T03:06:01;101278.16;;;8.81;73.66
70009;BME280;59542;37.950;-122.338;2023-02-12T03:08:33;101278.16;;;8.96;72.59
70009;BME280;59542;37.950;-122.338;2023-02-12T03:11:11;101279.81;;;9.12;72.01
70009;BME280;59542;37.950;-122.338;2023-02-12T03:14:28;101279.81;;;9.12;71.54
70009;BME280;59542;37.950;-122.338;2023-02-12T03:17:06;101281.06;;;9.16;71.81
70009;BME280;59542;37.950;-122.338;2023-02-12T03:19:49;101283.66;;;9.09;71.74
70009;BME280;59542;37.950;-122.338;2023-02-12T03:22:23;101275.84;;;9.22;71.01
70009;BME280;59542;37.950;-122.338;2023-02-12T03:25:05;101281.47;;;9.13;71.40
70009;BME280;59542;37.950;-122.338;2023-02-12T03:27:40;101295.09;;;9.18;71.09
70009;BME280;59542;37.950;-122.338;2023-02-12T03:30:08;101301.97;;;8.83;72.27
70009;BME280;59542;37.950;-122.338;2023-02-12T03:32:45;101297.31;;;8.85;72.17
70009;BME280;59542;37.950;-122.338;2023-02-12T03:35:22;101297.22;;;8.93;72.14
70009;BME280;59542;37.950;-122.338;2023-02-12T03:41:10;101293.34;;;8.81;72.39
70009;BME280;59542;37.950;-122.338;2023-02-12T03:43:55;101290.41;;;8.61;73.17
70009;BME280;59542;37.950;-122.338;2023-02-12T03:49:04;101290.56;;;8.59;73.43
70009;BME280;59542;37.950;-122.338;2023-02-12T03:51:38;101291.38;;;8.22;75.12
70009;BME280;59542;37.950;-122.338;2023-02-12T03:54:07;101297.97;;;8.49;74.11
70009;BME280;59542;37.950;-122.338;2023-02-12T03:59:04;101309.75;;;8.40;74.50
70009;BME280;59542;37.950;-122.338;2023-02-12T04:01:31;101309.56;;;8.18;75.19
70009;BME280;59542;37.950;-122.338;2023-02-12T04:04:00;101316.84;;;8.02;76.35
70009;BME280;59542;37.950;-122.338;2023-02-12T04:06:28;101314.38;;;8.00;76.49
70009;BME280;59542;37.950;-122.338;2023-02-12T04:08:56;101313.06;;;7.96;76.88
70009;BME280;59542;37.950;-122.338;2023-02-12T04:14:24;101318.81;;;8.08;76.23
70009;BME280;59542;37.950;-122.338;2023-02-12T04:28:14;101320.47;;;8.09;75.07
70009;BME280;59542;37.950;-122.338;2023-02-12T04:30:59;101319.28;;;7.88;76.52
70009;BME280;59542;37.950;-122.338;2023-02-12T04:33:36;101314.19;;;8.25;74.92
70009;BME280;59542;37.950;-122.338;2023-02-12T04:36:16;101318.88;;;8.23;74.74
70009;BME280;59542;37.950;-122.338;2023-02-12T04:38:57;101312.94;;;8.12;74.78
70009;BME280;59542;37.950;-122.338;2023-02-12T04:41:25;101319.00;;;8.06;75.20
70009;BME280;59542;37.950;-122.338;2023-02-12T04:43:52;101315.94;;;8.32;74.28
70009;BME280;59542;37.950;-122.338;2023-02-12T04:46:18;101321.81;;;8.05;74.71
70009;BME280;59542;37.950;-122.338;2023-02-12T04:48:56;101318.50;;;8.03;75.10
70009;BME280;59542;37.950;-122.338;2023-02-12T04:51:23;101324.38;;;8.21;74.22
70009;BME280;59542;37.950;-122.338;2023-02-12T04:53:49;101323.94;;;7.86;74.85
70009;BME280;59542;37.950;-122.338;2023-02-12T04:56:16;101331.19;;;7.78;75.77
70009;BME280;59542;37.950;-122.338;2023-02-12T04:58:43;101330.63;;;7.82;75.60
70009;BME280;59542;37.950;-122.338;2023-02-12T05:01:09;101324.03;;;7.70;76.30
70009;BME280;59542;37.950;-122.338;2023-02-12T05:03:36;101331.22;;;7.70;76.13
70009;BME280;59542;37.950;-122.338;2023-02-12T05:06:06;101331.13;;;7.86;75.73
70009;BME280;59542;37.950;-122.338;2023-02-12T05:08:33;101332.94;;;7.62;76.22
70009;BME280;59542;37.950;-122.338;2023-02-12T05:11:04;101324.22;;;7.68;76.42
70009;BME280;59542;37.950;-122.338;2023-02-12T05:13:31;101328.72;;;7.68;76.12
70009;BME280;59542;37.950;-122.338;2023-02-12T05:15:57;101330.91;;;7.64;76.27
70009;BME280;59542;37.950;-122.338;2023-02-12T05:18:23;101327.41;;;7.64;76.11
70009;BME280;59542;37.950;-122.338;2023-02-12T05:20:57;101322.91;;;7.64;75.59
70009;BME280;59542;37.950;-122.338;2023-02-12T05:23:32;101326.72;;;7.70;75.30
70009;BME280;59542;37.950;-122.338;2023-02-12T05:26:00;101320.97;;;7.81;74.99
70009;BME280;59542;37.950;-122.338;2023-02-12T05:28:27;101330.25;;;8.16;73.57
70009;BME280;59542;37.950;-122.338;2023-02-12T05:30:54;101328.69;;;7.99;73.64
70009;BME280;59542;37.950;-122.338;2023-02-12T05:33:20;101328.03;;;7.97;73.58
70009;BME280;59542;37.950;-122.338;2023-02-12T05:35:46;101320.75;;;7.91;73.32
70009;BME280;59542;37.950;-122.338;2023-02-12T05:38:13;101330.94;;;8.10;72.69
70009;BME280;59542;37.950;-122.338;2023-02-12T05:40:39;101324.38;;;7.98;72.59
70009;BME280;59542;37.950;-122.338;2023-02-12T05:43:07;101335.56;;;7.93;72.63
70009;BME280;59542;37.950;-122.338;2023-02-12T05:45:34;101332.06;;;7.93;72.80
70009;BME280;59542;37.950;-122.338;2023-02-12T05:48:00;101333.97;;;7.84;73.17
70009;BME280;59542;37.950;-122.338;2023-02-12T05:50:27;101339.91;;;7.63;73.67
70009;BME280;59542;37.950;-122.338;2023-02-12T05:52:53;101331.09;;;7.55;74.33
70009;BME280;59542;37.950;-122.338;2023-02-12T05:55:20;101332.69;;;7.41;74.91
70009;BME280;59542;37.950;-122.338;2023-02-12T05:57:46;101338.94;;;7.56;74.39
70009;BME280;59542;37.950;-122.338;2023-02-12T06:00:13;101338.81;;;7.50;74.88
70009;BME280;59542;37.950;-122.338;2023-02-12T06:02:39;101346.63;;;7.82;73.32
70009;BME280;59542;37.950;-122.338;2023-02-12T06:05:06;101346.75;;;7.58;73.51
70009;BME280;59542;37.950;-122.338;2023-02-12T06:07:32;101339.59;;;7.58;73.70
70009;BME280;59542;37.950;-122.338;2023-02-12T06:09:58;101336.66;;;7.06;75.50
70009;BME280;59542;37.950;-122.338;2023-02-12T06:12:25;101336.13;;;7.10;75.55
70009;BME280;59542;37.950;-122.338;2023-02-12T06:14:51;101331.78;;;7.18;74.98
70009;BME280;59542;37.950;-122.338;2023-02-12T06:17:17;101335.03;;;7.36;74.28
70009;BME280;59542;37.950;-122.338;2023-02-12T06:19:43;101339.03;;;7.32;74.46
70009;BME280;59542;37.950;-122.338;2023-02-12T06:22:09;101330.06;;;7.33;74.32
70009;BME280;59542;37.950;-122.338;2023-02-12T06:24:36;101329.75;;;7.28;74.70
70009;BME280;59542;37.950;-122.338;2023-02-12T06:27:02;101334.81;;;6.98;75.53
70009;BME280;59542;37.950;-122.338;2023-02-12T06:29:28;101334.88;;;6.66;76.91
70009;BME280;59542;37.950;-122.338;2023-02-12T06:31:54;101329.56;;;6.66;76.83
70009;BME280;59542;37.950;-122.338;2023-02-12T06:34:21;101336.97;;;7.11;75.39
70009;BME280;59542;37.950;-122.338;2023-02-12T06:36:47;101332.63;;;7.18;74.55
70009;BME280;59542;37.950;-122.338;2023-02-12T06:39:15;101340.50;;;6.87;75.73
70009;BME280;59542;37.950;-122.338;2023-02-12T06:41:41;101334.59;;;6.44;77.02
70009;BME280;59542;37.950;-122.338;2023-02-12T06:44:10;101335.53;;;6.76;75.99
70009;BME280;59542;37.950;-122.338;2023-02-12T06:46:36;101329.22;;;6.77;75.69
70009;BME280;59542;37.950;-122.338;2023-02-12T06:49:03;101336.72;;;6.49;76.83
70009;BME280;59542;37.950;-122.338;2023-02-12T06:51:29;101335.06;;;6.72;75.80
70009;BME280;59542;37.950;-122.338;2023-02-12T06:53:56;101333.91;;;6.42;77.01
70009;BME280;59542;37.950;-122.338;2023-02-12T06:56:24;101335.22;;;6.54;76.40
70009;BME280;59542;37.950;-122.338;2023-02-12T06:58:54;101334.25;;;6.31;77.16
70009;BME280;59542;37.950;-122.338;2023-02-12T07:01:23;101328.91;;;6.31;77.18
70009;BME280;59542;37.950;-122.338;2023-02-12T07:03:52;101341.34;;;5.98;78.75
70009;BME280;59542;37.950;-122.338;2023-02-12T07:06:19;101332.56;;;6.22;77.74
70009;BME280;59542;37.950;-122.338;2023-02-12T07:08:46;101330.59;;;6.24;77.70
70009;BME280;59542;37.950;-122.338;2023-02-12T07:11:12;101324.25;;;6.08;78.06
70009;BME280;59542;37.950;-122.338;2023-02-12T07:13:43;101325.56;;;6.04;78.39
70009;BME280;59542;37.950;-122.338;2023-02-12T07:16:12;101323.75;;;6.05;78.75
70009;BME280;59542;37.950;-122.338;2023-02-12T07:18:39;101332.25;;;6.33;77.44
70009;BME280;59542;37.950;-122.338;2023-02-12T07:21:07;101338.22;;;6.19;77.44
70009;BME280;59542;37.950;-122.338;2023-02-12T07:23:34;101345.03;;;6.38;77.13
70009;BME280;59542;37.950;-122.338;2023-02-12T07:26:03;101358.34;;;6.46;76.46
70009;BME280;59542;37.950;-122.338;2023-02-12T07:28:30;101365.81;;;6.75;75.26
70009;BME280;59542;37.950;-122.338;2023-02-12T07:31:20;101367.63;;;6.74;78.61
70009;BME280;59542;37.950;-122.338;2023-02-12T07:33:47;101369.31;;;6.59;80.31
70009;BME280;59542;37.950;-122.338;2023-02-12T07:36:16;101373.28;;;6.14;82.23
70009;BME280;59542;37.950;-122.338;2023-02-12T07:38:43;101362.31;;;6.25;82.02
70009;BME280;59542;37.950;-122.338;2023-02-12T07:41:11;101366.81;;;6.25;81.86
70009;BME280;59542;37.950;-122.338;2023-02-12T07:43:41;101363.66;;;6.29;81.60
70009;BME280;59542;37.950;-122.338;2023-02-12T07:46:13;101368.13;;;6.13;81.81
70009;BME280;59542;37.950;-122.338;2023-02-12T07:48:42;101359.00;;;6.31;81.45
70009;BME280;59542;37.950;-122.338;2023-02-12T07:51:12;101356.50;;;6.38;80.84
70009;BME280;59542;37.950;-122.338;2023-02-12T07:53:39;101349.19;;;6.48;79.63
70009;BME280;59542;37.950;-122.338;2023-02-12T07:56:08;101352.34;;;6.52;79.52
70009;BME280;59542;37.950;-122.338;2023-02-12T07:58:35;101363.50;;;6.55;78.84
70009;BME280;59542;37.950;-122.338;2023-02-12T08:01:20;101359.84;;;6.56;78.76
70009;BME280;59542;37.950;-122.338;2023-02-12T08:03:48;101359.47;;;6.76;77.44
70009;BME280;59542;37.950;-122.338;2023-02-12T08:06:17;101365.31;;;6.79;76.61
70009;BME280;59542;37.950;-122.338;2023-02-12T08:08:45;101357.19;;;6.56;77.35
70009;BME280;59542;37.950;-122.338;2023-02-12T08:11:13;101357.84;;;6.67;77.04
70009;BME280;59542;37.950;-122.338;2023-02-12T08:13:40;101350.50;;;6.60;77.11
70009;BME280;59542;37.950;-122.338;2023-02-12T08:16:11;101362.47;;;6.89;76.92
70009;BME280;59542;37.950;-122.338;2023-02-12T08:18:38;101362.50;;;6.73;77.44
70009;BME280;59542;37.950;-122.338;2023-02-12T08:21:10;101376.94;;;6.70;77.43
70009;BME280;59542;37.950;-122.338;2023-02-12T08:23:37;101368.97;;;6.62;77.68
70009;BME280;59542;37.950;-122.338;2023-02-12T08:28:33;101369.16;;;6.52;77.95
70009;BME280;59542;37.950;-122.338;2023-02-12T08:31:05;101374.94;;;6.88;76.95
70009;BME280;59542;37.950;-122.338;2023-02-12T08:33:32;101375.59;;;6.82;76.46
70009;BME280;59542;37.950;-122.338;2023-02-12T08:38:27;101374.28;;;6.54;77.11
70009;BME280;59542;37.950;-122.338;2023-02-12T08:40:54;101388.72;;;6.27;79.10
70009;BME280;59542;37.950;-122.338;2023-02-12T08:43:20;101390.00;;;5.98;81.15
70009;BME280;59542;37.950;-122.338;2023-02-12T08:45:46;101381.25;;;6.06;80.59
70009;BME280;59542;37.950;-122.338;2023-02-12T08:48:12;101371.13;;;6.26;80.04
70009;BME280;59542;37.950;-122.338;2023-02-12T08:50:39;101376.94;;;6.21;79.89
70009;BME280;59542;37.950;-122.338;2023-02-12T08:53:05;101371.13;;;6.26;79.53
70009;BME280;59542;37.950;-122.338;2023-02-12T08:55:32;101369.47;;;6.17;79.61
70009;BME280;59542;37.950;-122.338;2023-02-12T08:57:58;101360.34;;;6.52;78.61
70009;BME280;59542;37.950;-122.338;2023-02-12T09:00:25;101368.47;;;6.58;78.64
70009;BME280;59542;37.950;-122.338;2023-02-12T09:02:52;101368.63;;;6.49;80.01
70009;BME280;59542;37.950;-122.338;2023-02-12T09:05:18;101363.31;;;6.32;80.85
70009;BME280;59542;37.950;-122.338;2023-02-12T09:07:44;101358.50;;;6.20;80.46
70009;BME280;59542;37.950;-122.338;2023-02-12T09:10:10;101351.84;;;6.32;80.00
70009;BME280;59542;37.950;-122.338;2023-02-12T09:12:37;101351.69;;;6.25;80.33
70009;BME280;59542;37.950;-122.338;2023-02-12T09:15:03;101352.00;;;6.06;81.38
70009;BME280;59542;37.950;-122.338;2023-02-12T09:17:29;101353.47;;;5.92;81.80
70009;BME280;59542;37.950;-122.338;2023-02-12T09:19:56;101345.69;;;6.15;80.75
70009;BME280;59542;37.950;-122.338;2023-02-12T09:22:22;101353.59;;;5.91;81.50
70009;BME280;59542;37.950;-122.338;2023-02-12T09:24:48;101356.72;;;5.78;82.03
70009;BME280;59542;37.950;-122.338;2023-02-12T09:27:14;101357.81;;;6.09;80.81
70009;BME280;59542;37.950;-122.338;2023-02-12T09:29:40;101364.44;;;5.97;80.89
70009;BME280;59542;37.950;-122.338;2023-02-12T09:32:07;101364.38;;;5.81;81.55
70009;BME280;59542;37.950;-122.338;2023-02-12T09:34:34;101366.13;;;5.56;82.94
70009;BME280;59542;37.950;-122.338;2023-02-12T09:37:01;101372.31;;;5.30;84.43
70009;BME280;59542;37.950;-122.338;2023-02-12T09:39:27;101382.25;;;5.28;85.40
70009;BME280;59542;37.950;-122.338;2023-02-12T09:42:14;101394.63;;;5.46;84.78
70009;BME280;59542;37.950;-122.338;2023-02-12T09:53:01;101395.53;;;5.28;86.25
70009;BME280;59542;37.950;-122.338;2023-02-12T09:55:31;101413.22;;;5.20;86.57
70009;BME280;59542;37.950;-122.338;2023-02-12T09:58:00;101416.78;;;5.28;86.67
70009;BME280;59542;37.950;-122.338;2023-02-12T10:00:30;101408.38;;;5.49;85.05
70009;BME280;59542;37.950;-122.338;2023-02-12T10:03:00;101417.84;;;5.78;83.40
70009;BME280;59542;37.950;-122.338;2023-02-12T10:05:50;101414.41;;;5.60;83.88
70009;BME280;59542;37.950;-122.338;2023-02-12T10:11:35;101418.19;;;5.49;83.77
70009;BME280;59542;37.950;-122.338;2023-02-12T10:25:10;101397.50;;;5.26;83.74
70009;BME280;59542;37.950;-122.338;2023-02-12T10:27:41;101399.69;;;5.05;84.26
70009;BME280;59542;37.950;-122.338;2023-02-12T10:30:30;101386.41;;;5.31;83.16
70009;BME280;59542;37.950;-122.338;2023-02-12T10:33:05;101382.75;;;5.32;82.56
70009;BME280;59542;37.950;-122.338;2023-02-12T10:35:33;101389.13;;;5.39;81.98
70009;BME280;59542;37.950;-122.338;2023-02-12T10:38:04;101396.09;;;5.40;81.77
70009;BME280;59542;37.950;-122.338;2023-02-12T10:40:33;101384.78;;;5.38;81.56
70009;BME280;59542;37.950;-122.338;2023-02-12T10:43:02;101393.16;;;5.60;80.61
70009;BME280;59542;37.950;-122.338;2023-02-12T10:45:34;101383.53;;;5.50;80.17
70009;BME280;59542;37.950;-122.338;2023-02-12T10:48:22;101380.66;;;5.44;80.21
70009;BME280;59542;37.950;-122.338;2023-02-12T10:53:23;101386.47;;;5.39;79.93
70009;BME280;59542;37.950;-122.338;2023-02-12T10:55:50;101387.94;;;5.34;79.82
70009;BME280;59542;37.950;-122.338;2023-02-12T10:58:29;101388.59;;;5.36;79.95
70009;BME280;59542;37.950;-122.338;2023-02-12T11:00:57;101382.13;;;5.38;79.81
70009;BME280;59542;37.950;-122.338;2023-02-12T11:03:29;101386.09;;;5.34;79.60
70009;BME280;59542;37.950;-122.338;2023-02-12T11:06:22;101385.94;;;5.36;79.21
70009;BME280;59542;37.950;-122.338;2023-02-12T11:08:49;101371.47;;;5.30;79.77
70009;BME280;59542;37.950;-122.338;2023-02-12T11:14:01;101360.34;;;5.26;80.11
70009;BME280;59542;37.950;-122.338;2023-02-12T11:16:36;101362.53;;;5.31;79.83
70009;BME280;59542;37.950;-122.338;2023-02-12T11:19:17;101365.81;;;5.25;80.19
70009;BME280;59542;37.950;-122.338;2023-02-12T11:21:44;101372.41;;;5.21;80.39
70009;BME280;59542;37.950;-122.338;2023-02-12T11:24:40;101370.47;;;5.31;80.19
70009;BME280;59542;37.950;-122.338;2023-02-12T11:29:44;101365.28;;;5.21;80.15
70009;BME280;59542;37.950;-122.338;2023-02-12T11:32:19;101368.94;;;5.20;80.37
70009;BME280;59542;37.950;-122.338;2023-02-12T11:35:24;101376.69;;;5.14;80.82
70009;BME280;59542;37.950;-122.338;2023-02-12T11:37:58;101374.44;;;5.27;80.27
70009;BME280;59542;37.950;-122.338;2023-02-12T11:40:33;101375.97;;;5.29;79.94
70009;BME280;59542;37.950;-122.338;2023-02-12T11:43:06;101363.31;;;5.23;79.88
70009;BME280;59542;37.950;-122.338;2023-02-12T11:45:42;101365.63;;;5.26;79.62
70009;BME280;59542;37.950;-122.338;2023-02-12T11:48:23;101370.22;;;5.16;79.63
70009;BME280;59542;37.950;-122.338;2023-02-12T11:50:53;101368.28;;;5.18;79.98
70009;BME280;59542;37.950;-122.338;2023-02-12T11:53:39;101367.00;;;5.04;81.04
70009;BME280;59542;37.950;-122.338;2023-02-12T11:56:11;101379.59;;;4.76;82.70
70009;BME280;59542;37.950;-122.338;2023-02-12T11:58:38;101370.25;;;4.90;82.01
70009;BME280;59542;37.950;-122.338;2023-02-12T12:01:17;101371.25;;;4.89;82.80
70009;BME280;59542;37.950;-122.338;2023-02-12T12:03:59;101372.09;;;4.90;82.32
70009;BME280;59542;37.950;-122.338;2023-02-12T12:11:40;101364.72;;;5.10;81.55
70009;BME280;59542;37.950;-122.338;2023-02-12T12:18:05;101370.31;;;5.33;81.64
70009;BME280;59542;37.950;-122.338;2023-02-12T12:21:02;101375.44;;;5.26;83.13
70009;BME280;59542;37.950;-122.338;2023-02-12T12:23:36;101371.59;;;5.20;83.76
70009;BME280;59542;37.950;-122.338;2023-02-12T12:26:17;101371.38;;;5.14;84.86
70009;BME280;59542;37.950;-122.338;2023-02-12T12:33:51;101361.88;;;5.37;83.62
70009;BME280;59542;37.950;-122.338;2023-02-12T12:44:44;101361.03;;;5.79;84.86
70009;BME280;59542;37.950;-122.338;2023-02-12T12:53:13;101375.09;;;6.14;84.80
70009;BME280;59542;37.950;-122.338;2023-02-12T12:55:47;101383.06;;;6.05;84.70
70009;BME280;59542;37.950;-122.338;2023-02-12T13:01:39;101396.00;;;6.08;84.63
70009;BME280;59542;37.950;-122.338;2023-02-12T13:04:43;101389.03;;;6.16;84.21
70009;BME280;59542;37.950;-122.338;2023-02-12T13:29:19;101398.56;;;6.34;81.73
70009;BME280;59542;37.950;-122.338;2023-02-12T13:31:54;101406.69;;;6.25;82.06
70009;BME280;59542;37.950;-122.338;2023-02-12T13:34:23;101404.50;;;6.20;81.62
70009;BME280;59542;37.950;-122.338;2023-02-12T13:36:54;101415.47;;;6.17;81.64
70009;BME280;59542;37.950;-122.338;2023-02-12T13:39:42;101424.50;;;5.90;82.87
70009;BME280;59542;37.950;-122.338;2023-02-12T13:42:20;101406.69;;;6.17;81.48
70009;BME280;59542;37.950;-122.338;2023-02-12T13:59:37;101425.91;;;6.11;82.09
70009;BME280;59542;37.950;-122.338;2023-02-12T14:02:25;101427.91;;;6.00;82.29
70009;BME280;59542;37.950;-122.338;2023-02-12T14:07:19;101434.16;;;5.91;82.90
70009;BME280;59542;37.950;-122.338;2023-02-12T14:20:47;101443.41;;;5.87;83.96
70009;BME280;59542;37.950;-122.338;2023-02-12T14:23:33;101447.63;;;5.55;85.11
70009;BME280;59542;37.950;-122.338;2023-02-12T14:26:24;101446.47;;;5.66;85.31
70009;BME280;59542;37.950;-122.338;2023-02-12T14:29:03;101450.66;;;5.69;85.17
70009;BME280;59542;37.950;-122.338;2023-02-12T14:31:36;101441.69;;;5.70;84.63
70009;BME280;59542;37.950;-122.338;2023-02-12T14:44:47;101443.00;;;5.06;87.24
70009;BME280;59542;37.950;-122.338;2023-02-12T14:49:53;101431.97;;;5.18;86.62
70009;BME280;59542;37.950;-122.338;2023-02-12T14:52:32;101441.53;;;5.11;86.87
70009;BME280;59542;37.950;-122.338;2023-02-12T14:55:30;101441.69;;;5.36;85.70
70009;BME280;59542;37.950;-122.338;2023-02-12T14:58:15;101436.22;;;5.37;85.55
70009;BME280;59542;37.950;-122.338;2023-02-12T15:00:45;101446.81;;;5.63;84.10
70009;BME280;59542;37.950;-122.338;2023-02-12T15:05:53;101453.78;;;5.64;83.85
70009;BME280;59542;37.950;-122.338;2023-02-12T15:10:53;101443.16;;;5.64;83.33
70009;BME280;59542;37.950;-122.338;2023-02-12T15:13:30;101455.59;;;5.64;83.09
70009;BME280;59542;37.950;-122.338;2023-02-12T15:16:36;101463.56;;;5.64;82.65
70009;BME280;59542;37.950;-122.338;2023-02-12T15:22:23;101465.47;;;5.45;85.31
70009;BME280;59542;37.950;-122.338;2023-02-12T15:24:51;101462.22;;;5.60;84.55
70009;BME280;59542;37.950;-122.338;2023-02-12T15:27:18;101472.38;;;5.64;83.49
70009;BME280;59542;37.950;-122.338;2023-02-12T15:29:51;101473.97;;;5.83;82.13
70009;BME280;59542;37.950;-122.338;2023-02-12T15:32:24;101467.78;;;5.82;81.72
70009;BME280;59542;37.950;-122.338;2023-02-12T15:34:52;101471.25;;;5.67;82.31
70009;BME280;59542;37.950;-122.338;2023-02-12T15:37:29;101467.47;;;5.17;86.30
70009;BME280;59542;37.950;-122.338;2023-02-12T15:40:00;101473.91;;;5.41;85.46
70009;BME280;59542;37.950;-122.338;2023-02-12T15:42:32;101481.97;;;5.57;84.23
70009;BME280;59542;37.950;-122.338;2023-02-12T15:47:41;101476.50;;;5.33;86.51
70009;BME280;59542;37.950;-122.338;2023-02-12T15:50:12;101477.81;;;5.11;86.76
70009;BME280;59542;37.950;-122.338;2023-02-12T15:52:40;101482.13;;;5.29;86.27
70009;BME280;59542;37.950;-122.338;2023-02-12T15:55:19;101480.31;;;5.30;86.56
70009;BME280;59542;37.950;-122.338;2023-02-12T15:57:59;101478.38;;;5.40;85.95